Terminal Aerodrome Forecast
Issued by NWS

Home | Current Version | Previous Version | Text Only | Print | Product List | Glossary On
Versions: 1 2 3 4 5 6 7 8 9 10 11 12 13 14 15 16
000
FTUS44 KTSA 230600 AAB
TAFBVO
TAF AMD
KBVO 230612Z 2306/2406 18005KT 4SM BR FEW120
      TEMPO 2306/2310 2SM BR
     FM231100 VRB03KT P6SM VCTS SCT050CB SCT120
     FM231800 01007KT P6SM SCT050 SCT250
     FM240100 VRB03KT P6SM FEW250=

USA.gov is the U.S. government's official web portal to all federal, state and local government web resources and services.